createdAt,value
2023-05-14T08:03:52.514Z,0.9632107023411371
2023-05-14T08:08:55.684Z,2.0
2023-05-14T08:08:57.402Z,2.0
2023-05-14T08:08:59.212Z,2.0
2023-05-14T08:09:01.109Z,2.0
2023-05-14T08:09:02.918Z,4.0
2023-05-14T08:09:04.639Z,2.0
2023-05-14T08:09:57.265Z,0.0
2023-05-14T08:09:58.865Z,0.0
2023-05-14T08:25:21.270Z,1.1638795986622072
2023-05-14T08:31:46.141Z,0.6622073578595318
2023-05-14T08:38:08.276Z,1.6989966555183946
2023-05-14T08:44:30.548Z,0.5351170568561873
2023-05-14T08:51:48.660Z,1.391304347826087
2023-05-14T08:58:11.790Z,0.862876254180602
2023-05-14T09:04:33.609Z,1.6956521739130435
2023-05-14T09:11:02.287Z,1.9096989966555185
2023-05-14T09:17:25.990Z,1.2642140468227425
2023-05-14T09:23:50.997Z,1.3177257525083612
2023-05-14T09:32:59.009Z,1.4782608695652173
2023-05-14T09:39:24.633Z,1.137123745819398
2023-05-14T09:45:47.017Z,0.8662207357859532
2023-05-14T09:52:07.780Z,0.7224080267558528
2023-05-14T09:58:29.453Z,0.5217391304347826
2023-05-14T10:04:51.447Z,1.374581939799331
2023-05-14T10:11:42.683Z,1.0434782608695652
2023-05-14T10:21:11.342Z,1.2675585284280937
2023-05-14T10:33:10.751Z,1.9096989966555185
2023-05-14T18:20:25.642Z,2.4949832775919734
2023-05-14T18:27:46.102Z,1.8929765886287626
2023-05-14T18:35:20.596Z,2.9498327759197323
2023-05-14T18:41:44.136Z,2.5752508361204014
2023-05-14T18:48:09.945Z,2.42809364548495
2023-05-14T18:56:02.052Z,2.468227424749164
2023-05-14T19:02:29.199Z,2.250836120401338
2023-05-14T19:12:03.863Z,0.782608695652174
2023-05-14T19:18:33.215Z,1.4749163879598661
2023-05-14T19:25:11.765Z,2.0434782608695654
2023-05-14T19:31:38.140Z,1.2775919732441472
2023-05-14T19:37:58.974Z,2.3946488294314383
2023-05-14T19:44:20.871Z,2.05685618729097
2023-05-14T19:51:45.844Z,2.725752508361204
2023-05-14T19:58:08.505Z,3.0869565217391304
2023-05-14T20:04:29.826Z,2.789297658862876
2023-05-14T20:12:55.312Z,2.471571906354515
2023-05-14T20:24:30.422Z,3.74247491638796
2023-05-14T20:36:31.343Z,3.4013377926421406
2023-05-14T21:07:07.425Z,3.745819397993311
2023-05-14T21:13:25.930Z,1.9096989966555185
2023-05-14T21:19:44.149Z,2.8327759197324416
2023-05-14T21:28:54.159Z,1.625418060200669
2023-05-14T21:35:39.580Z,2.0535117056856187
2023-05-14T21:41:58.005Z,2.1939799331103678
2023-05-14T21:50:40.867Z,1.2508361204013378
2023-05-14T21:57:00.391Z,1.7190635451505016
2023-05-14T22:03:19.863Z,2.8060200668896322
2023-05-14T22:16:09.292Z,1.5752508361204014
2023-05-14T22:27:47.364Z,2.779264214046823
2023-05-14T22:43:15.509Z,3.260869565217391
2023-05-14T22:54:22.340Z,2.9264214046822743
2023-05-14T23:06:30.179Z,3.4648829431438126
2023-05-14T23:15:28.222Z,3.4949832775919734
2023-05-14T23:24:53.584Z,3.5551839464882944
2023-05-14T23:31:12.714Z,3.3411371237458196
2023-05-14T23:37:30.679Z,3.5183946488294313
2023-05-14T23:48:22.356Z,2.9264214046822743
2023-05-14T23:54:40.834Z,3.468227424749164
